CPX407 Details

Departure: Chicago/Rockford International Airport (KRFD)
Arrival: Nashville International Airport (KBNA)
Route: JOT GUIDO J73 PXV GUMMA RYYMN2


Current Weather Information
KRFD 232154Z 26012G19KT 10SM FEW250 23/12 A3006 RMK AO2 SLP179 T02280117
KBNA 232153Z VRB06KT 10SM FEW045 BKN250 31/16 A3014 RMK AO2 SLP197 T03110156